Aérodrome :
LOGIN :

S'inscrire | Disclaimer

   EN    FR    IT 

 










Légende :    VFR   VFR Marginal   IFR   IFR Intensif   IFR Très Intensif
Visi : 
Plafond : 
>= 8 km
>= 3000ft
5 à 8 km
1000 à 3000 ft
1500m à 5 km
500 à 1000 ft
800 à 1500m
200 à 500 ft
< 800m
< 200 ft
Symboles :   Orages  Brouillard  Fortes neiges  Fortes précipitations  Vent > 20 kt
SIGMETs :   Divers  Orages  Givrage  Turbulence  Onde Orograph.  Cendres Volcan.







- Altitude de l'aérodrome : 580 ft
- Voir les cartes d'approche


LFOA - Avord

DERNIER METAR :
  • 141300Z AUTO 24015KT 9999 SCT044/// BKN052/// OVC078/// ///TCU 09/05 Q1002 TEMPO 27030G55KT 2000 TSRA BKN008 BKN015CB

METARs EXPIRÉS :
  • 141230Z AUTO 24016KT CAVOK 09/05 Q1003 TEMPO 27030G55KT 2000 TSRA BKN008 BKN015CB
  • 141200Z AUTO 22013KT CAVOK 08/06 Q1004 TEMPO 27025G45KT 4000 SHRA SCT008 BKN015TCU
  • 141130Z AUTO 24016KT 9999 FEW048/// BKN072/// OVC082/// ///TCU 08/05 Q1005 TEMPO 27025G45KT 4000 SHRA
  • 141100Z AUTO 24017KT 9999 FEW020 SCT030 BKN039 08/05 Q1006 TEMPO 27025G45KT 4000 SHRA SCT008 BKN015TCU
  • 141030Z AUTO 23013KT 9999 FEW024 BKN062 BKN082 08/06 Q1006 TEMPO 27025G45KT 4000 SHRA SCT008 BKN015TCU

TAF AMD TAF LFOA
Valide du 14 à 10h jusqu'au 15 à 09h UTC


141004Z 1410/1509 25010KT CAVOK
TEMPO 1410/1412 25015G25KT
TEMPO 1411/1420 27025G45KT 4000 SHRA SCT008 BKN015TCU
PROB40
TEMPO 1414/1418 27030G55KT 2000 TSRA BKN008 BKN015CB
BECMG 1507/1509 21015G25KT 4000 -SHRA BKN008 BKN015TCU
Pas de NOTAMs connus pour ce terrain.
2 SIGMETs publiés pour la FIR Paris (LFFF) :
 
Turbulence forte
LFFF SIGMET 8 VALID 141300/141500 LFPW
LFFF PARIS FIR/UIR SEV TURB OBS AT 1300Z S OF N4700 AND E OF E00330 FL160/250 STNR NC=
Orages noyés dans la masse
LFFF SIGMET 7 VALID 141130/141330 LFPW
LFFF PARIS FIR/UIR EMBD TS OBS AT 1130Z NW OF LINE N4915 W00015 - N5045 E00300 TOP FL290 MOV E 30KT NC=



MET'MAP, la Météo Aéronautique d'un coup d'oeil ! - Copyright ORBIFLY Décembre 2007 - Disclaimer

ORBIFLY MET'MAP TEAM :

Programmation & Développement : Alexandra Zaïnal
Conception & Développement : Baudouin d'Aumeries
Co-Programmation & Développement : Marc-Olivier Méhu
Soutien technique & logistique : Manuel Goepfert

Contact : metmap@orbifly.com




SOURCES & CREDITS :

   NOAA